Time;durP1;ratioP1;P1;durP2;ratioP2;P2;SDS_P1;SDS_P2;PMS_P1;PMS_P2;Temp;Humidity;BMP_temperature;BMP_pressure;BME280_temperature;BME280_humidity;BME280_pressure;Samples;Min_cycle;Max_cycle;Signal;HPM_P1;HPM_P2
2023/09/27 00:01:59;;;;;;;5.60;4.97;;;;;;;12.40;100.00;97110.94;5043006;28;20230;-64
2023/09/27 00:04:28;;;;;;;5.43;4.87;;;;;;;12.37;100.00;97106.78;5042396;28;20199;-58
2023/09/27 00:06:54;;;;;;;6.00;4.90;;;;;;;12.35;100.00;97118.50;5042374;28;20585;-58
2023/09/27 00:09:20;;;;;;;6.03;4.67;;;;;;;12.31;100.00;97119.78;5043347;28;20223;-56
2023/09/27 00:11:48;;;;;;;5.70;5.13;;;;;;;12.26;100.00;97114.03;5042609;28;20207;-57
2023/09/27 00:14:14;;;;;;;6.60;5.20;;;;;;;12.25;100.00;97113.22;5042623;28;20211;-58
2023/09/27 00:16:42;;;;;;;5.73;5.17;;;;;;;12.23;100.00;97109.03;5043292;28;20246;-57
2023/09/27 00:19:09;;;;;;;7.90;4.87;;;;;;;12.14;100.00;97096.63;5041893;28;20221;-58
2023/09/27 00:21:36;;;;;;;6.00;5.37;;;;;;;12.13;100.00;97094.94;5043015;28;20326;-58
2023/09/27 00:24:02;;;;;;;7.80;4.80;;;;;;;12.07;100.00;97092.88;5042498;28;20235;-57
2023/09/27 00:26:29;;;;;;;5.67;4.80;;;;;;;12.03;100.00;97094.13;5043951;28;20214;-58
2023/09/27 00:28:56;;;;;;;5.43;4.40;;;;;;;12.01;100.00;97086.31;5044827;28;20232;-58
2023/09/27 00:31:22;;;;;;;5.63;4.80;;;;;;;11.99;100.00;97075.03;5042105;28;20204;-58
2023/09/27 00:33:50;;;;;;;5.93;4.77;;;;;;;11.98;100.00;97083.94;5044767;28;20218;-58
2023/09/27 00:36:17;;;;;;;5.57;4.50;;;;;;;12.00;100.00;97086.47;5042444;28;20227;-57
2023/09/27 00:38:43;;;;;;;5.40;4.87;;;;;;;12.03;100.00;97091.47;5045749;28;20210;-58
2023/09/27 00:41:10;;;;;;;7.90;4.73;;;;;;;12.03;100.00;97096.78;5046868;28;20202;-59
2023/09/27 00:43:37;;;;;;;5.30;4.70;;;;;;;12.10;100.00;97093.44;5044871;28;20644;-58
2023/09/27 00:46:05;;;;;;;5.23;4.73;;;;;;;12.12;100.00;97087.97;5043556;28;20200;-58
2023/09/27 00:48:32;;;;;;;5.20;4.70;;;;;;;12.11;100.00;97099.56;5043497;28;20211;-58
2023/09/27 00:51:01;;;;;;;4.80;4.40;;;;;;;12.06;100.00;97096.50;5042627;28;20195;-57
2023/09/27 00:53:31;;;;;;;5.47;4.43;;;;;;;12.07;100.00;97104.31;5041617;28;20215;-59
2023/09/27 00:55:57;;;;;;;5.47;4.90;;;;;;;12.07;100.00;97106.13;5041923;28;20222;-57
2023/09/27 00:58:25;;;;;;;8.00;4.70;;;;;;;12.09;100.00;97112.13;5041129;28;20274;-58
2023/09/27 01:00:52;;;;;;;7.43;5.33;;;;;;;12.05;100.00;97100.94;5042261;28;20207;-57
2023/09/27 01:03:20;;;;;;;5.73;5.13;;;;;;;12.06;100.00;97101.78;5041091;28;20312;-61
2023/09/27 01:05:47;;;;;;;5.90;5.00;;;;;;;12.02;100.00;97095.94;5041998;28;20766;-58
2023/09/27 01:08:14;;;;;;;7.43;4.93;;;;;;;12.01;100.00;97104.06;5042032;28;20226;-58
2023/09/27 01:10:41;;;;;;;5.50;5.00;;;;;;;11.93;100.00;97095.00;5041718;28;20293;-57
2023/09/27 01:13:08;;;;;;;5.33;4.80;;;;;;;11.92;100.00;97090.66;5041175;28;20291;-57
2023/09/27 01:15:35;;;;;;;5.33;4.50;;;;;;;11.90;100.00;97097.06;5042280;28;20220;-58
2023/09/27 01:18:02;;;;;;;5.47;4.93;;;;;;;11.86;100.00;97100.97;5040952;28;20226;-56
2023/09/27 01:20:30;;;;;;;5.23;4.40;;;;;;;11.86;100.00;97098.34;5041135;28;20195;-57
2023/09/27 01:22:59;;;;;;;5.70;5.10;;;;;;;11.82;100.00;97096.94;5040796;28;20302;-58
2023/09/27 01:25:27;;;;;;;6.33;5.03;;;;;;;11.77;100.00;97097.34;5041171;28;20211;-58
2023/09/27 01:27:54;;;;;;;5.57;5.07;;;;;;;11.76;100.00;97106.25;5040907;28;20691;-57
2023/09/27 01:30:20;;;;;;;7.53;5.13;;;;;;;11.77;100.00;97105.28;5041198;28;20632;-58
2023/09/27 01:32:47;;;;;;;5.33;4.87;;;;;;;11.78;100.00;97099.03;5041606;28;20211;-58
2023/09/27 01:35:13;;;;;;;6.00;5.40;;;;;;;11.76;100.00;97097.50;5041794;28;20242;-58
2023/09/27 01:37:40;;;;;;;7.40;5.33;;;;;;;11.77;100.00;97107.94;5043741;28;20224;-58
2023/09/27 01:40:16;;;;;;;5.57;5.03;;;;;;;11.76;100.00;97108.09;5041711;28;20203;-57
2023/09/27 01:42:43;;;;;;;5.70;5.07;;;;;;;11.71;100.00;97097.91;5041529;28;20883;-57
2023/09/27 01:45:11;;;;;;;5.07;4.53;;;;;;;11.70;100.00;97101.50;5040871;28;20635;-57
2023/09/27 01:47:37;;;;;;;5.90;5.30;;;;;;;11.62;100.00;97093.38;5043721;28;20203;-57
2023/09/27 01:50:06;;;;;;;6.13;5.53;;;;;;;11.61;100.00;97099.69;5043360;28;20195;-56
2023/09/27 01:52:32;;;;;;;6.00;5.20;;;;;;;11.59;100.00;97106.91;5042900;28;20199;-58
2023/09/27 01:54:59;;;;;;;6.47;4.60;;;;;;;11.58;100.00;97110.56;5043186;28;20226;-58
2023/09/27 01:57:27;;;;;;;5.47;4.97;;;;;;;11.52;100.00;97108.44;5045965;28;20230;-57
2023/09/27 01:59:53;;;;;;;5.50;5.00;;;;;;;11.51;100.00;97116.53;5045174;28;20218;-58
2023/09/27 02:02:20;;;;;;;5.60;4.93;;;;;;;11.47;100.00;97108.03;5045284;28;20571;-57
2023/09/27 02:04:46;;;;;;;6.30;5.10;;;;;;;11.55;100.00;97102.06;5044705;28;20199;-58
2023/09/27 02:07:13;;;;;;;7.93;5.00;;;;;;;11.49;100.00;97103.41;5045267;28;20207;-57
2023/09/27 02:09:39;;;;;;;5.40;4.83;;;;;;;11.45;100.00;97107.31;5045014;28;20354;-58
2023/09/27 02:12:06;;;;;;;5.50;4.97;;;;;;;11.38;100.00;97107.03;5045067;28;20210;-58
2023/09/27 02:14:34;;;;;;;6.90;4.83;;;;;;;11.36;100.00;97114.28;5045102;28;20216;-57
2023/09/27 02:17:01;;;;;;;5.13;4.73;;;;;;;11.38;100.00;97116.78;5045336;28;20219;-57
2023/09/27 02:19:27;;;;;;;5.97;4.80;;;;;;;11.40;100.00;97114.84;5044064;28;20206;-56
2023/09/27 02:21:54;;;;;;;6.30;5.50;;;;;;;11.35;100.00;97117.06;5044807;28;20219;-58
2023/09/27 02:24:20;;;;;;;7.37;5.57;;;;;;;11.29;100.00;97122.91;5044082;28;21479;-58
2023/09/27 02:26:48;;;;;;;8.07;5.13;;;;;;;11.31;100.00;97121.78;5045635;28;20199;-58
2023/09/27 02:29:15;;;;;;;4.87;4.47;;;;;;;11.31;100.00;97124.44;5043836;28;20238;-58
2023/09/27 02:31:43;;;;;;;5.77;5.27;;;;;;;11.29;100.00;97128.19;5044338;28;20261;-57
2023/09/27 02:34:09;;;;;;;5.37;4.87;;;;;;;11.27;100.00;97130.13;5043747;28;20218;-57
2023/09/27 02:36:36;;;;;;;8.20;5.20;;;;;;;11.25;100.00;97127.63;5044442;28;20219;-58
2023/09/27 02:39:03;;;;;;;6.03;5.47;;;;;;;11.25;100.00;97126.78;5044267;28;20211;-57
2023/09/27 02:41:29;;;;;;;6.70;5.30;;;;;;;11.27;100.00;97124.84;5044826;28;20662;-58
2023/09/27 02:43:56;;;;;;;8.27;5.13;;;;;;;11.28;100.00;97122.06;5044251;28;20621;-58
2023/09/27 02:46:22;;;;;;;5.90;5.27;;;;;;;11.21;100.00;97120.09;5044473;28;20204;-56
2023/09/27 02:48:50;;;;;;;5.40;4.80;;;;;;;11.19;100.00;97122.03;5043965;28;20204;-58
2023/09/27 02:51:17;;;;;;;6.97;4.97;;;;;;;11.24;100.00;97122.47;5044277;28;20300;-59
2023/09/27 02:53:44;;;;;;;5.63;5.13;;;;;;;11.24;100.00;97127.75;5044593;28;20207;-58
2023/09/27 02:56:11;;;;;;;6.93;5.10;;;;;;;11.26;100.00;97123.19;5044787;28;20202;-58
2023/09/27 02:58:37;;;;;;;6.47;5.40;;;;;;;11.24;100.00;97133.06;5043599;28;20238;-58
2023/09/27 03:01:04;;;;;;;6.43;5.77;;;;;;;11.25;100.00;97132.09;5044335;28;20196;-58
2023/09/27 03:03:31;;;;;;;5.33;4.83;;;;;;;11.22;100.00;97127.06;5044457;28;20204;-57
2023/09/27 03:05:59;;;;;;;5.40;4.90;;;;;;;11.22;100.00;97124.41;5044508;28;20199;-57
2023/09/27 03:08:25;;;;;;;5.87;5.20;;;;;;;11.22;100.00;97127.06;5042940;28;20640;-57
2023/09/27 03:10:52;;;;;;;5.43;4.93;;;;;;;11.34;100.00;97142.69;5044222;28;20202;-58
2023/09/27 03:13:19;;;;;;;5.80;5.07;;;;;;;11.36;100.00;97146.06;5044407;28;20195;-57
2023/09/27 03:15:55;;;;;;;6.03;5.37;;;;;;;11.30;100.00;97137.81;5044566;28;20207;-57
2023/09/27 03:18:22;;;;;;;5.60;5.10;;;;;;;11.30;100.00;97140.47;5043624;28;20207;-57
2023/09/27 03:20:51;;;;;;;6.30;5.70;;;;;;;11.29;100.00;97146.72;5043815;28;20238;-57
2023/09/27 03:23:19;;;;;;;6.67;5.80;;;;;;;11.20;100.00;97147.53;5043961;28;20655;-56
2023/09/27 03:25:48;;;;;;;8.17;5.80;;;;;;;11.16;100.00;97146.94;5043523;28;20632;-57
2023/09/27 03:28:15;;;;;;;6.93;5.67;;;;;;;11.17;100.00;97155.75;5043458;28;20233;-57
2023/09/27 03:30:41;;;;;;;5.37;4.97;;;;;;;11.23;100.00;97142.78;5044077;28;20215;-57
2023/09/27 03:33:08;;;;;;;7.40;5.40;;;;;;;11.16;100.00;97139.00;5043798;28;20212;-57
2023/09/27 03:35:34;;;;;;;7.43;5.20;;;;;;;11.12;100.00;97136.78;5041711;28;20208;-58
2023/09/27 03:38:01;;;;;;;6.20;5.23;;;;;;;11.08;100.00;97149.47;5043041;28;20293;-58
2023/09/27 03:40:29;;;;;;;6.70;5.60;;;;;;;11.07;100.00;97155.72;5043862;28;20231;-58
2023/09/27 03:42:55;;;;;;;6.60;5.40;;;;;;;11.09;100.00;97155.59;5043302;28;20637;-57
2023/09/27 03:45:22;;;;;;;5.57;5.07;;;;;;;11.06;100.00;97155.84;5042679;28;20660;-58
2023/09/27 03:47:48;;;;;;;7.50;5.30;;;;;;;11.04;100.00;97161.28;5043604;28;20635;-57
2023/09/27 03:50:15;;;;;;;6.03;5.00;;;;;;;11.07;100.00;97157.50;5043208;28;20658;-58
2023/09/27 03:52:42;;;;;;;5.43;4.70;;;;;;;11.03;100.00;97164.03;5044674;28;20214;-58
2023/09/27 03:55:09;;;;;;;7.47;5.07;;;;;;;10.99;100.00;97164.31;5043754;28;20303;-57
2023/09/27 03:57:37;;;;;;;6.73;5.20;;;;;;;10.98;100.00;97156.53;5044895;28;20228;-57
2023/09/27 04:00:06;;;;;;;6.43;5.00;;;;;;;10.99;100.00;97161.66;5044594;28;20200;-57
2023/09/27 04:02:33;;;;;;;5.53;5.03;;;;;;;10.95;100.00;97162.91;5045930;28;20238;-57
2023/09/27 04:04:59;;;;;;;5.27;4.77;;;;;;;10.97;100.00;97168.06;5046448;28;20211;-57
2023/09/27 04:07:26;;;;;;;6.03;5.47;;;;;;;10.94;100.00;97166.53;5047397;28;20199;-57
2023/09/27 04:09:52;;;;;;;8.20;5.40;;;;;;;10.95;100.00;97154.13;5047313;28;20230;-57
2023/09/27 04:12:19;;;;;;;5.63;5.13;;;;;;;10.91;100.00;97150.91;5046760;28;20207;-60
2023/09/27 04:14:47;;;;;;;5.93;5.00;;;;;;;10.86;100.00;97153.13;5048111;28;20207;-58
2023/09/27 04:17:14;;;;;;;5.80;5.20;;;;;;;10.86;100.00;97153.13;5045175;28;20228;-57
2023/09/27 04:19:41;;;;;;;7.17;5.43;;;;;;;10.86;100.00;97158.41;5041903;28;20263;-57
2023/09/27 04:22:08;;;;;;;6.47;5.70;;;;;;;10.86;100.00;97163.72;5044029;28;20210;-57
2023/09/27 04:24:35;;;;;;;6.07;5.47;;;;;;;10.82;100.00;97170.22;5042230;28;20203;-57
2023/09/27 04:27:01;;;;;;;7.50;5.67;;;;;;;10.84;100.00;97178.03;5042257;28;20608;-58
2023/09/27 04:29:28;;;;;;;5.53;4.93;;;;;;;10.95;100.00;97188.53;5042387;28;20200;-57
2023/09/27 04:31:56;;;;;;;5.93;4.97;;;;;;;10.83;100.00;97185.13;5042008;28;20617;-57
2023/09/27 04:34:23;;;;;;;2.03;1.93;;;;;;;12.49;100.00;97184.38;5041815;28;20228;-52
2023/09/27 04:36:50;;;;;;;3.20;2.40;;;;;;;14.81;100.00;97183.78;5042161;28;20287;-52
2023/09/27 04:39:18;;;;;;;2.92;2.30;;;;;;;16.11;100.00;97182.56;5042378;28;20215;-52
2023/09/27 04:41:46;;;;;;;3.90;3.03;;;;;;;17.07;100.00;97180.91;5043997;28;20263;-52
2023/09/27 04:44:12;;;;;;;4.40;3.30;;;;;;;18.03;100.00;97172.69;5042867;28;20249;-52
2023/09/27 04:46:39;;;;;;;4.22;3.22;;;;;;;18.64;100.00;97169.91;5042193;28;20219;-53
2023/09/27 04:49:07;;;;;;;6.95;3.50;;;;;;;19.09;100.00;97170.88;5042292;28;20208;-53
2023/09/27 04:51:33;;;;;;;3.60;3.30;;;;;;;19.46;100.00;97178.84;5044401;28;20203;-54
2023/09/27 04:54:03;;;;;;;4.68;3.40;;;;;;;19.72;100.00;97170.34;5045231;28;20536;-54
2023/09/27 04:56:30;;;;;;;7.10;4.50;;;;;;;15.65;98.27;97165.28;5047737;28;20204;-56
2023/09/27 04:58:58;;;;;;;5.30;4.80;;;;;;;14.00;100.00;97173.41;5041457;28;20671;-57
2023/09/27 05:01:25;;;;;;;5.57;4.95;;;;;;;13.25;100.00;97177.22;5042501;28;20199;-57
2023/09/27 05:03:51;;;;;;;5.57;4.32;;;;;;;12.73;100.00;97171.47;5041591;28;20671;-57
2023/09/27 05:06:19;;;;;;;6.03;4.90;;;;;;;12.37;100.00;97172.25;5042108;28;20532;-57
2023/09/27 05:08:46;;;;;;;5.22;4.75;;;;;;;12.08;100.00;97172.25;5041417;28;20255;-56
2023/09/27 05:11:12;;;;;;;5.53;5.03;;;;;;;11.92;100.00;97167.50;5040991;28;20199;-55
2023/09/27 05:13:39;;;;;;;5.40;4.90;;;;;;;11.74;100.00;97170.97;5040960;28;20207;-55
2023/09/27 05:16:06;;;;;;;5.10;4.60;;;;;;;11.66;100.00;97176.06;5040770;28;20199;-56
2023/09/27 05:18:32;;;;;;;7.18;5.00;;;;;;;11.62;100.00;97178.16;5040946;28;20655;-56
2023/09/27 05:21:05;;;;;;;6.85;4.60;;;;;;;11.59;100.00;97173.13;5040499;28;20217;-56
2023/09/27 05:23:32;;;;;;;5.67;5.03;;;;;;;11.61;100.00;97168.56;5041275;28;20200;-56
2023/09/27 05:25:59;;;;;;;5.90;5.00;;;;;;;11.61;100.00;97171.22;5040620;28;20222;-55
2023/09/27 05:28:26;;;;;;;5.40;4.90;;;;;;;11.64;100.00;97176.22;5040847;28;20228;-56
2023/09/27 05:30:53;;;;;;;7.60;5.00;;;;;;;11.68;100.00;97182.94;5040732;28;20970;-55
2023/09/27 05:33:19;;;;;;;5.63;5.13;;;;;;;11.61;100.00;97173.03;5040929;28;20208;-55
2023/09/27 05:35:50;;;;;;;5.93;4.70;;;;;;;11.52;100.00;97165.88;5041537;28;20616;-55
2023/09/27 05:38:16;;;;;;;9.00;5.27;;;;;;;11.51;100.00;97174.81;5041398;28;20211;-56
2023/09/27 05:40:45;;;;;;;6.93;4.90;;;;;;;11.54;100.00;97171.88;5040871;28;20206;-55
2023/09/27 05:43:12;;;;;;;7.77;6.23;;;;;;;11.57;100.00;97175.09;5041015;28;20627;-55
2023/09/27 05:45:38;;;;;;;6.20;5.53;;;;;;;11.58;100.00;97179.44;5040973;28;20199;-54
2023/09/27 05:48:06;;;;;;;9.13;7.77;;;;;;;11.62;100.00;97183.47;5040649;28;20622;-56
2023/09/27 05:50:34;;;;;;;11.90;9.17;;;;;;;11.65;100.00;97185.88;5040700;28;20258;-55
2023/09/27 05:53:01;;;;;;;15.50;11.10;;;;;;;11.68;100.00;97190.03;5040670;28;20635;-56
2023/09/27 05:55:28;;;;;;;16.27;10.77;;;;;;;11.69;100.00;97184.59;5041155;28;20238;-56
2023/09/27 05:57:55;;;;;;;20.97;12.83;;;;;;;11.71;100.00;97187.16;5041234;28;20228;-55
2023/09/27 06:00:26;;;;;;;16.77;13.40;;;;;;;11.73;100.00;97193.97;5040818;28;20219;-55
2023/09/27 06:02:52;;;;;;;20.57;13.27;;;;;;;11.74;100.00;97190.38;5040804;28;20690;-56
2023/09/27 06:05:19;;;;;;;16.40;12.80;;;;;;;11.81;100.00;97191.50;5040579;28;20207;-55
2023/09/27 06:07:46;;;;;;;38.00;14.47;;;;;;;11.80;100.00;97187.16;5040740;28;20207;-56
2023/09/27 06:10:12;;;;;;;24.47;13.87;;;;;;;11.77;100.00;97192.72;5040585;28;20206;-55
2023/09/27 06:12:39;;;;;;;18.50;12.57;;;;;;;11.86;100.00;97191.94;5041090;28;20208;-55
2023/09/27 06:15:09;;;;;;;19.80;12.07;;;;;;;11.90;100.00;97198.59;5041010;28;20208;-56
2023/09/27 06:17:36;;;;;;;20.63;12.10;;;;;;;11.95;100.00;97201.69;5046123;28;20195;-56
2023/09/27 06:20:06;;;;;;;15.30;12.00;;;;;;;12.06;100.00;97203.38;5045574;28;20216;-55
2023/09/27 06:22:32;;;;;;;19.37;13.73;;;;;;;12.09;100.00;97202.25;5045917;28;20203;-55
2023/09/27 06:24:59;;;;;;;24.07;12.43;;;;;;;12.08;100.00;97203.25;5042551;28;20196;-56
2023/09/27 06:27:25;;;;;;;23.63;13.60;;;;;;;12.02;100.00;97215.22;5040747;28;20235;-53
2023/09/27 06:29:52;;;;;;;30.90;14.67;;;;;;;12.07;100.00;97209.50;5041499;28;20219;-55
2023/09/27 06:32:22;;;;;;;20.83;14.30;;;;;;;12.03;100.00;97198.34;5040736;28;20283;-55
2023/09/27 06:34:49;;;;;;;22.50;14.00;;;;;;;12.09;100.00;97205.75;5040383;28;20218;-56
2023/09/27 06:37:15;;;;;;;17.67;14.10;;;;;;;12.10;100.00;97207.44;5040329;28;20215;-55
2023/09/27 06:39:43;;;;;;;16.80;14.23;;;;;;;12.08;100.00;97209.38;5040872;28;20227;-54
2023/09/27 06:42:09;;;;;;;29.97;14.50;;;;;;;12.11;100.00;97205.63;5041111;28;20543;-55
2023/09/27 06:44:37;;;;;;;26.00;14.77;;;;;;;12.17;100.00;97199.75;5044872;28;20227;-56
2023/09/27 06:47:04;;;;;;;19.23;14.43;;;;;;;12.14;100.00;97198.22;5044018;28;20672;-56
2023/09/27 06:49:32;;;;;;;19.57;14.80;;;;;;;12.11;100.00;97195.00;5043971;28;20265;-56
2023/09/27 06:51:58;;;;;;;19.93;14.40;;;;;;;12.12;100.00;97194.00;5043633;28;20206;-56
2023/09/27 06:54:25;;;;;;;20.57;14.77;;;;;;;12.18;100.00;97196.13;5043890;28;20191;-55
2023/09/27 06:56:52;;;;;;;25.03;14.57;;;;;;;12.20;100.00;97202.97;5043680;28;20207;-55
2023/09/27 06:59:19;;;;;;;25.37;14.93;;;;;;;12.20;100.00;97210.91;5043611;28;20231;-55
2023/09/27 07:01:45;;;;;;;26.70;14.43;;;;;;;12.23;100.00;97207.97;5044194;28;20842;-55
2023/09/27 07:04:12;;;;;;;20.97;15.97;;;;;;;12.23;100.00;97205.34;5043341;28;20200;-54
2023/09/27 07:06:40;;;;;;;19.80;16.13;;;;;;;12.19;100.00;97213.69;5044417;28;20551;-56
2023/09/27 07:09:12;;;;;;;18.03;15.07;;;;;;;12.17;100.00;97210.34;5044140;28;20216;-56
2023/09/27 07:11:40;;;;;;;42.07;15.37;;;;;;;12.20;100.00;97210.06;5047359;28;20210;-55
2023/09/27 07:14:07;;;;;;;18.90;14.80;;;;;;;12.24;100.00;97222.09;5046582;28;20208;-55
2023/09/27 07:16:33;;;;;;;22.63;15.77;;;;;;;12.27;100.00;97222.63;5044858;28;20298;-56
2023/09/27 07:19:00;;;;;;;26.00;17.03;;;;;;;12.33;100.00;97222.06;5043147;28;20223;-56
2023/09/27 07:21:27;;;;;;;21.53;17.90;;;;;;;12.37;100.00;97227.94;5042937;28;20218;-55
2023/09/27 07:23:55;;;;;;;18.43;16.43;;;;;;;12.43;100.00;97214.13;5043330;28;20247;-56
2023/09/27 07:26:22;;;;;;;19.53;17.07;;;;;;;12.46;100.00;97216.50;5043428;28;20207;-56
2023/09/27 07:28:48;;;;;;;20.83;18.27;;;;;;;12.56;100.00;97209.38;5043809;28;20239;-61
2023/09/27 07:31:16;;;;;;;22.10;18.00;;;;;;;12.64;100.00;97214.81;5043415;28;20203;-55
2023/09/27 07:33:44;;;;;;;22.10;18.07;;;;;;;12.66;100.00;97210.19;5043111;28;20256;-56
2023/09/27 07:36:11;;;;;;;24.07;19.20;;;;;;;12.70;100.00;97214.25;5044074;28;20207;-55
2023/09/27 07:38:39;;;;;;;25.87;18.60;;;;;;;12.78;100.00;97217.03;5044657;28;20305;-57
2023/09/27 07:41:09;;;;;;;28.13;18.43;;;;;;;12.82;100.00;97210.41;5043907;28;20291;-56
2023/09/27 07:43:36;;;;;;;21.87;18.67;;;;;;;12.86;100.00;97208.31;5044109;28;20257;-56
2023/09/27 07:46:06;;;;;;;22.60;18.23;;;;;;;12.90;100.00;97199.94;5043057;28;20631;-55
2023/09/27 07:48:34;;;;;;;23.73;18.03;;;;;;;13.05;100.00;97195.00;5042627;28;20196;-56
2023/09/27 07:51:02;;;;;;;22.70;18.87;;;;;;;13.18;100.00;97203.50;5043387;28;20258;-56
2023/09/27 07:53:29;;;;;;;24.77;18.17;;;;;;;13.29;100.00;97199.84;5042576;28;20203;-55
2023/09/27 07:55:57;;;;;;;21.73;18.30;;;;;;;13.47;100.00;97190.09;5042976;28;20274;-56
2023/09/27 07:58:25;;;;;;;22.13;18.67;;;;;;;13.56;100.00;97183.09;5042538;28;20223;-56
2023/09/27 08:00:51;;;;;;;24.20;19.83;;;;;;;13.55;100.00;97186.72;5042939;28;20214;-54
2023/09/27 08:03:18;;;;;;;22.80;18.23;;;;;;;13.61;100.00;97189.63;5041741;28;20199;-55
2023/09/27 08:05:45;;;;;;;26.38;18.67;;;;;;;13.65;100.00;97180.34;5043318;28;20195;-55
2023/09/27 08:08:13;;;;;;;19.37;17.27;;;;;;;13.76;100.00;97185.47;5042735;28;20547;-55
2023/09/27 08:10:43;;;;;;;21.60;18.13;;;;;;;13.98;100.00;97186.03;5043108;28;20199;-56
2023/09/27 08:13:11;;;;;;;21.77;19.00;;;;;;;14.08;100.00;97190.28;5042452;28;20230;-55
2023/09/27 08:15:39;;;;;;;26.60;19.02;;;;;;;14.31;100.00;97188.03;5043469;28;20259;-54
2023/09/27 08:18:06;;;;;;;26.10;19.75;;;;;;;14.39;100.00;97182.78;5042194;28;20208;-54
2023/09/27 08:20:33;;;;;;;29.60;18.77;;;;;;;14.51;100.00;97184.22;5042004;28;20235;-55
2023/09/27 08:22:59;;;;;;;24.17;19.15;;;;;;;14.55;100.00;97176.78;5042050;28;20215;-56
2023/09/27 08:25:26;;;;;;;23.45;17.90;;;;;;;14.64;100.00;97175.84;5042349;28;20222;-56
2023/09/27 08:27:52;;;;;;;22.83;17.48;;;;;;;14.70;100.00;97161.91;5041506;28;20292;-57
2023/09/27 08:30:19;;;;;;;26.27;18.25;;;;;;;14.73;100.00;97159.78;5042909;28;20498;-55
2023/09/27 08:32:47;;;;;;;23.90;17.77;;;;;;;14.70;100.00;97152.06;5042340;28;20210;-57
2023/09/27 08:35:14;;;;;;;22.13;16.92;;;;;;;14.73;100.00;97157.13;5042809;28;20207;-56
2023/09/27 08:37:40;;;;;;;19.27;17.08;;;;;;;14.82;100.00;97148.19;5042325;28;20206;-55
2023/09/27 08:40:12;;;;;;;19.13;16.65;;;;;;;14.93;100.00;97147.91;5042727;28;20228;-56
2023/09/27 08:42:39;;;;;;;19.65;16.83;;;;;;;15.09;100.00;97141.03;5042726;28;20199;-57
2023/09/27 08:45:09;;;;;;;19.85;17.67;;;;;;;15.14;100.00;97144.03;5042341;28;20548;-55
2023/09/27 08:47:35;;;;;;;27.63;17.40;;;;;;;15.20;100.00;97143.38;5042347;28;20195;-54
2023/09/27 08:50:04;;;;;;;21.83;16.15;;;;;;;15.35;100.00;97136.47;5041542;28;20210;-56
2023/09/27 08:52:31;;;;;;;19.40;15.32;;;;;;;15.52;100.00;97138.22;5042107;28;20191;-56
2023/09/27 08:54:57;;;;;;;19.23;16.08;;;;;;;15.78;100.00;97138.13;5041800;28;20191;-56
2023/09/27 08:57:26;;;;;;;32.17;16.67;;;;;;;15.93;100.00;97132.00;5041677;28;20212;-55
2023/09/27 08:59:53;;;;;;;16.95;15.25;;;;;;;16.21;100.00;97123.69;5041443;28;20281;-56
2023/09/27 09:02:21;;;;;;;23.42;16.98;;;;;;;16.47;100.00;97128.88;5041785;28;20581;-55
2023/09/27 09:04:47;;;;;;;18.17;14.40;;;;;;;16.70;100.00;97125.34;5040318;28;20203;-54
2023/09/27 09:07:15;;;;;;;15.88;14.30;;;;;;;17.04;100.00;97121.63;5041614;28;20207;-56
2023/09/27 09:09:41;;;;;;;17.48;14.30;;;;;;;17.19;100.00;97120.72;5041675;28;20214;-55
2023/09/27 09:12:09;;;;;;;15.38;13.70;;;;;;;17.45;100.00;97119.63;5041781;28;20203;-55
2023/09/27 09:14:42;;;;;;;19.90;14.45;;;;;;;17.31;100.00;97110.50;5041149;28;20295;-56
2023/09/27 09:17:10;;;;;;;19.70;14.10;;;;;;;17.52;100.00;97116.09;5041794;28;20200;-54
2023/09/27 09:19:38;;;;;;;14.98;13.43;;;;;;;17.78;100.00;97111.28;5041576;28;20297;-56
2023/09/27 09:22:08;;;;;;;12.98;11.65;;;;;;;18.05;100.00;97106.44;5041113;28;20727;-56
2023/09/27 09:24:36;;;;;;;14.00;12.45;;;;;;;18.33;100.00;97102.19;5041058;28;20200;-55
2023/09/27 09:27:08;;;;;;;14.02;12.70;;;;;;;18.53;100.00;97094.53;5041145;28;20214;-57
2023/09/27 09:29:46;;;;;;;13.52;12.10;;;;;;;18.76;100.00;97095.31;5041304;28;20243;-55
2023/09/27 09:32:13;;;;;;;12.80;11.48;;;;;;;18.94;100.00;97094.94;5041165;28;20260;-56
2023/09/27 09:34:41;;;;;;;14.63;12.10;;;;;;;18.90;100.00;97091.81;5040344;28;20628;-56
2023/09/27 09:37:16;;;;;;;14.70;11.85;;;;;;;19.09;100.00;97087.75;5048951;28;20210;-55
2023/09/27 09:39:44;;;;;;;11.85;10.75;;;;;;;19.43;100.00;97089.88;5047878;28;20207;-56
2023/09/27 09:42:11;;;;;;;11.40;10.25;;;;;;;19.69;99.65;97091.03;5042354;28;20203;-56
2023/09/27 09:44:37;;;;;;;11.88;10.65;;;;;;;19.67;100.00;97086.84;5041863;28;20264;-57
2023/09/27 09:47:10;;;;;;;11.18;10.15;;;;;;;19.81;98.93;97081.47;5041551;28;20207;-57
2023/09/27 09:49:37;;;;;;;12.82;10.45;;;;;;;20.16;97.51;97077.06;5041064;28;20199;-56
2023/09/27 09:52:05;;;;;;;10.93;9.82;;;;;;;20.43;99.75;97069.28;5040906;28;20207;-55
2023/09/27 09:54:37;;;;;;;10.82;9.65;;;;;;;20.37;93.89;97070.88;5040757;28;20203;-56
2023/09/27 09:57:06;;;;;;;10.15;8.02;;;;;;;20.26;93.63;97061.44;5042956;28;20200;-56
2023/09/27 09:59:36;;;;;;;10.57;9.45;;;;;;;20.29;92.95;97054.91;5048970;28;20222;-56
2023/09/27 10:02:05;;;;;;;10.77;8.90;;;;;;;20.73;95.36;97050.06;5046638;28;20838;-55
2023/09/27 10:04:32;;;;;;;9.82;8.82;;;;;;;21.05;95.60;97054.00;5040325;28;20238;-55
2023/09/27 10:07:00;;;;;;;10.40;8.80;;;;;;;21.06;89.68;97039.53;5041442;28;20211;-57
2023/09/27 10:09:28;;;;;;;9.45;8.65;;;;;;;21.41;92.22;97037.66;5041369;28;20223;-55
2023/09/27 10:11:56;;;;;;;10.45;8.60;;;;;;;21.37;88.08;97039.06;5040553;28;20591;-56
2023/09/27 10:14:24;;;;;;;9.95;8.52;;;;;;;21.32;87.33;97033.47;5040245;28;20643;-56
2023/09/27 10:16:51;;;;;;;9.38;7.72;;;;;;;21.59;88.61;97034.41;5041016;28;20200;-55
2023/09/27 10:19:25;;;;;;;8.30;7.47;;;;;;;22.05;87.69;97034.53;5043843;28;20227;-56
2023/09/27 10:22:04;;;;;;;9.13;8.02;;;;;;;22.16;86.27;97031.22;5045264;28;20199;-56
2023/09/27 10:24:30;;;;;;;9.18;8.07;;;;;;;22.17;85.20;97022.13;5044618;28;20195;-55
2023/09/27 10:26:57;;;;;;;8.95;8.05;;;;;;;22.14;83.10;97022.53;5044334;28;20199;-55
2023/09/27 10:29:24;;;;;;;9.25;8.27;;;;;;;22.20;81.78;97010.94;5044461;28;20234;-55
2023/09/27 10:32:18;;;;;;;9.65;7.53;;;;;;;22.57;83.98;97017.53;5044760;28;20212;-55
2023/09/27 10:34:45;;;;;;;8.23;7.43;;;;;;;22.65;83.63;97007.38;5043738;28;20683;-56
2023/09/27 10:37:11;;;;;;;8.32;7.53;;;;;;;22.74;81.50;97002.63;5044138;28;20663;-57
2023/09/27 10:39:39;;;;;;;8.20;7.50;;;;;;;22.76;83.12;96993.28;5044253;28;20290;-55
2023/09/27 10:42:05;;;;;;;8.30;7.50;;;;;;;22.41;79.41;96991.84;5044746;28;20258;-58
2023/09/27 10:44:34;;;;;;;7.90;7.10;;;;;;;22.41;83.15;96983.78;5044523;28;20203;-55
2023/09/27 10:47:03;;;;;;;8.43;6.57;;;;;;;22.58;77.75;96986.84;5044475;28;20203;-55
2023/09/27 10:49:37;;;;;;;7.53;6.82;;;;;;;22.90;82.59;96979.75;5043420;28;20195;-56
2023/09/27 10:52:04;;;;;;;6.60;6.00;;;;;;;23.05;82.17;96972.25;5043489;28;20562;-57
2023/09/27 10:54:31;;;;;;;7.28;6.68;;;;;;;23.10;81.07;96973.25;5044554;28;20211;-56
2023/09/27 10:56:57;;;;;;;6.00;5.50;;;;;;;23.26;79.74;96969.25;5044206;28;20235;-55
2023/09/27 10:59:25;;;;;;;6.95;6.10;;;;;;;23.01;74.22;96971.00;5043404;28;20674;-55
2023/09/27 11:01:53;;;;;;;6.60;6.00;;;;;;;23.08;78.97;96966.44;5043969;28;20211;-55
2023/09/27 11:04:21;;;;;;;6.60;6.00;;;;;;;23.24;76.88;96957.84;5043233;28;20545;-56
2023/09/27 11:06:48;;;;;;;7.93;5.90;;;;;;;23.32;76.70;96952.19;5044255;28;20214;-56
2023/09/27 11:09:19;;;;;;;5.80;5.28;;;;;;;23.77;78.09;96951.13;5044232;28;20203;-56
2023/09/27 11:11:46;;;;;;;6.82;5.72;;;;;;;23.61;74.50;96946.25;5044083;28;20212;-56
2023/09/27 11:14:12;;;;;;;6.57;5.60;;;;;;;23.61;73.13;96948.13;5043830;28;20199;-56
2023/09/27 11:16:39;;;;;;;6.05;5.47;;;;;;;24.10;73.69;96944.66;5043846;28;20223;-55
2023/09/27 11:19:07;;;;;;;6.15;5.60;;;;;;;24.26;70.96;96946.84;5042805;28;20231;-55
2023/09/27 11:21:33;;;;;;;6.40;5.88;;;;;;;24.35;70.45;96937.41;5043847;28;20290;-57
2023/09/27 11:24:03;;;;;;;6.47;5.88;;;;;;;24.53;72.05;96929.31;5043678;28;20217;-55